Terminal Aerodrome Forecast
Issued by NWS Duluth, MN

Home | Current Version | Previous Version | Text Only | Print | Product List | Glossary On
Versions: 1 2 3 4 5 6 7 8 9 10 11 12 13 14 15 16 17 18 19 20 21
000
FTUS43 KDLH 031459 AAB
TAFINL
TAF AMD
KINL 031459Z 0315/0412 30010KT P6SM BKN030 OVC060
     FM031700 31011G17KT P6SM VCSH SCT030 BKN040
     FM040000 28005KT P6SM SCT040 SCT080=

USA.gov is the U.S. government's official web portal to all federal, state and local government web resources and services.